Time;durP1;ratioP1;P1;durP2;ratioP2;P2;SDS_P1;SDS_P2;PMS_P1;PMS_P2;Temp;Humidity;BMP_temperature;BMP_pressure;BME280_temperature;BME280_humidity;BME280_pressure;Samples;Min_cycle;Max_cycle;Signal;HPM_P1;HPM_P2
2021/12/30 00:00:27;;;;;;;28.73;6.43;;;;;;;;;;5070821;28;20128;-31
2021/12/30 00:03:14;;;;;;;34.35;8.23;;;;;;;;;;5069256;28;20044;-30
2021/12/30 00:05:54;;;;;;;33.63;8.23;;;;;;;;;;5069813;28;20056;-31
2021/12/30 00:08:27;;;;;;;36.13;6.45;;;;;;;;;;5070030;28;20041;-31
2021/12/30 00:11:01;;;;;;;32.30;6.75;;;;;;;;;;5069795;28;20123;-31
2021/12/30 00:13:32;;;;;;;29.75;6.80;;;;;;;;;;5069619;28;20132;-32
2021/12/30 00:15:59;;;;;;;38.15;6.85;;;;;;;;;;5069974;28;20038;-30
2021/12/30 00:18:26;;;;;;;33.10;6.70;;;;;;;;;;5069992;28;20446;-31
2021/12/30 00:20:52;;;;;;;30.45;6.97;;;;;;;;;;5069461;28;20199;-34
2021/12/30 00:23:20;;;;;;;30.17;6.97;;;;;;;;;;5069668;28;20068;-30
2021/12/30 00:25:52;;;;;;;32.03;6.50;;;;;;;;;;5068496;28;20497;-30
2021/12/30 00:28:22;;;;;;;36.25;7.00;;;;;;;;;;5069732;28;20497;-31
2021/12/30 00:31:01;;;;;;;36.28;6.88;;;;;;;;;;5070252;28;20546;-30
2021/12/30 00:33:36;;;;;;;37.15;6.80;;;;;;;;;;5069518;28;20514;-31
2021/12/30 00:36:13;;;;;;;35.13;7.35;;;;;;;;;;5068343;28;20120;-30
2021/12/30 00:38:50;;;;;;;35.03;7.22;;;;;;;;;;5069854;28;20045;-30
2021/12/30 00:41:46;;;;;;;34.45;6.75;;;;;;;;;;5069671;28;20048;-30
2021/12/30 00:44:27;;;;;;;30.77;7.07;;;;;;;;;;5069857;28;20045;-30
2021/12/30 00:47:03;;;;;;;35.70;6.47;;;;;;;;;;5070044;28;20102;-30
2021/12/30 00:49:35;;;;;;;31.90;6.90;;;;;;;;;;5069142;28;20071;-30
2021/12/30 00:52:01;;;;;;;37.92;7.00;;;;;;;;;;5069581;28;20119;-33
2021/12/30 00:54:30;;;;;;;33.88;6.55;;;;;;;;;;5069514;28;20374;-32
2021/12/30 00:56:59;;;;;;;31.55;7.28;;;;;;;;;;5069014;28;20119;-32
2021/12/30 00:59:26;;;;;;;31.58;7.10;;;;;;;;;;5068826;28;20059;-32
2021/12/30 01:02:18;;;;;;;40.60;6.97;;;;;;;;;;5073160;28;20074;-32
2021/12/30 01:04:50;;;;;;;35.83;6.63;;;;;;;;;;5089052;28;20036;-32
2021/12/30 01:07:23;;;;;;;30.20;6.43;;;;;;;;;;5087539;28;20032;-31
2021/12/30 01:09:49;;;;;;;37.50;7.18;;;;;;;;;;5088600;28;20028;-33
2021/12/30 01:12:22;;;;;;;35.38;6.72;;;;;;;;;;5083067;28;20045;-33
2021/12/30 01:14:57;;;;;;;39.55;8.10;;;;;;;;;;5068739;28;20041;-32
2021/12/30 01:17:44;;;;;;;37.40;7.70;;;;;;;;;;5073041;28;20044;-32
2021/12/30 01:20:11;;;;;;;37.08;7.55;;;;;;;;;;5085712;28;20040;-34
2021/12/30 01:22:40;;;;;;;32.10;7.65;;;;;;;;;;5070358;28;20093;-32
2021/12/30 01:25:28;;;;;;;38.10;6.93;;;;;;;;;;5068394;28;20052;-32
2021/12/30 01:27:59;;;;;;;35.83;7.03;;;;;;;;;;5070391;28;20379;-33
2021/12/30 01:30:37;;;;;;;37.08;6.80;;;;;;;;;;5077595;28;20051;-33
2021/12/30 01:33:11;;;;;;;43.83;7.80;;;;;;;;;;5078170;28;20048;-32
2021/12/30 01:35:49;;;;;;;35.60;7.53;;;;;;;;;;5092502;28;20059;-34
2021/12/30 01:38:20;;;;;;;33.42;7.35;;;;;;;;;;5090116;28;20401;-33
2021/12/30 01:40:48;;;;;;;29.88;7.65;;;;;;;;;;5078698;28;20051;-33
2021/12/30 01:43:20;;;;;;;42.15;8.10;;;;;;;;;;5073111;28;20097;-32
2021/12/30 01:45:53;;;;;;;33.50;7.40;;;;;;;;;;5072084;28;20047;-33
2021/12/30 01:48:25;;;;;;;31.73;7.55;;;;;;;;;;5082487;28;20046;-32
2021/12/30 01:50:56;;;;;;;47.78;8.05;;;;;;;;;;5091598;28;20040;-31
2021/12/30 01:53:25;;;;;;;33.60;7.35;;;;;;;;;;5089626;28;20123;-32
2021/12/30 01:55:54;;;;;;;34.60;7.70;;;;;;;;;;5091496;28;20305;-32
2021/12/30 01:58:20;;;;;;;36.55;8.02;;;;;;;;;;5090397;28;20036;-34
2021/12/30 02:00:53;;;;;;;38.20;8.27;;;;;;;;;;5091851;28;20032;-34
2021/12/30 02:03:23;;;;;;;30.73;7.93;;;;;;;;;;5090248;28;20098;-33
2021/12/30 02:05:58;;;;;;;36.00;8.93;;;;;;;;;;5082127;28;20291;-33
2021/12/30 02:08:26;;;;;;;48.50;8.82;;;;;;;;;;5071846;28;20120;-33
2021/12/30 02:11:04;;;;;;;36.28;9.98;;;;;;;;;;5071424;28;20071;-34
2021/12/30 02:13:51;;;;;;;46.05;9.27;;;;;;;;;;5078104;28;20041;-33
2021/12/30 02:16:21;;;;;;;42.97;10.13;;;;;;;;;;5071172;28;20036;-33
2021/12/30 02:19:05;;;;;;;42.17;9.63;;;;;;;;;;5058372;28;20059;-33
2021/12/30 02:21:37;;;;;;;45.80;11.23;;;;;;;;;;5071545;28;20037;-32
2021/12/30 02:24:09;;;;;;;44.60;11.18;;;;;;;;;;5082696;28;20040;-32
2021/12/30 02:26:41;;;;;;;55.10;13.50;;;;;;;;;;5091779;28;20385;-34
2021/12/30 02:29:13;;;;;;;47.75;14.27;;;;;;;;;;5076672;28;20084;-32
2021/12/30 02:31:42;;;;;;;53.72;15.40;;;;;;;;;;5084298;28;20055;-33
2021/12/30 02:34:16;;;;;;;48.67;15.30;;;;;;;;;;5080183;28;20044;-32
2021/12/30 02:36:42;;;;;;;52.70;16.42;;;;;;;;;;5071094;28;20124;-34
2021/12/30 02:39:16;;;;;;;53.67;16.38;;;;;;;;;;5074086;28;20072;-34
2021/12/30 02:41:48;;;;;;;50.10;17.67;;;;;;;;;;5071085;28;20034;-32
2021/12/30 02:44:14;;;;;;;52.35;17.05;;;;;;;;;;5080173;28;20105;-32
2021/12/30 02:46:42;;;;;;;52.17;18.83;;;;;;;;;;5071809;28;20377;-33
2021/12/30 02:49:15;;;;;;;57.00;19.17;;;;;;;;;;5069290;28;20048;-32
2021/12/30 02:51:53;;;;;;;58.58;18.25;;;;;;;;;;5076382;28;20040;-32
2021/12/30 02:54:25;;;;;;;62.85;20.63;;;;;;;;;;5090138;28;20042;-32
2021/12/30 02:56:56;;;;;;;48.03;18.27;;;;;;;;;;5089914;28;20260;-34
2021/12/30 02:59:28;;;;;;;59.20;18.92;;;;;;;;;;5079937;28;20041;-32
2021/12/30 03:01:57;;;;;;;62.42;19.30;;;;;;;;;;5070402;28;20036;-33
2021/12/30 03:04:32;;;;;;;53.33;19.17;;;;;;;;;;5070480;28;20402;-32
2021/12/30 03:07:20;;;;;;;54.45;19.48;;;;;;;;;;5070990;28;20201;-33
2021/12/30 03:09:55;;;;;;;60.28;19.38;;;;;;;;;;5071753;28;20036;-32
2021/12/30 03:12:24;;;;;;;52.38;18.95;;;;;;;;;;5070539;28;20102;-32
2021/12/30 03:14:56;;;;;;;50.80;18.50;;;;;;;;;;5080828;28;20039;-33
2021/12/30 03:17:25;;;;;;;43.80;17.10;;;;;;;;;;5090151;28;20545;-34
2021/12/30 03:19:57;;;;;;;56.08;18.50;;;;;;;;;;5080693;28;20040;-32
2021/12/30 03:22:35;;;;;;;48.25;18.25;;;;;;;;;;5071926;28;20041;-32
2021/12/30 03:25:19;;;;;;;54.08;17.63;;;;;;;;;;5077895;28;20036;-33
2021/12/30 03:27:47;;;;;;;51.97;17.05;;;;;;;;;;5090021;28;20040;-33
2021/12/30 03:30:16;;;;;;;54.88;17.90;;;;;;;;;;5088970;28;20523;-33
2021/12/30 03:32:50;;;;;;;48.20;15.73;;;;;;;;;;5089621;28;20040;-33
2021/12/30 03:35:19;;;;;;;45.97;16.90;;;;;;;;;;5079328;28;20036;-34
2021/12/30 03:37:51;;;;;;;49.95;16.40;;;;;;;;;;5069157;28;20173;-34
2021/12/30 03:40:23;;;;;;;48.20;16.60;;;;;;;;;;5080070;28;20032;-32
2021/12/30 03:42:58;;;;;;;52.15;15.98;;;;;;;;;;5090144;28;20123;-35
2021/12/30 03:45:41;;;;;;;49.60;16.58;;;;;;;;;;5078386;28;20037;-33
2021/12/30 03:48:23;;;;;;;45.78;16.13;;;;;;;;;;5069901;28;20056;-34
2021/12/30 03:50:51;;;;;;;49.50;16.20;;;;;;;;;;5082314;28;20485;-33
2021/12/30 03:53:17;;;;;;;57.33;16.63;;;;;;;;;;5079580;28;20178;-32
2021/12/30 03:55:54;;;;;;;47.20;17.13;;;;;;;;;;5079444;28;20185;-34
2021/12/30 03:58:20;;;;;;;47.90;15.82;;;;;;;;;;5087742;28;20115;-36
2021/12/30 04:00:56;;;;;;;50.97;16.65;;;;;;;;;;5089977;28;20032;-37
2021/12/30 04:03:22;;;;;;;48.22;16.27;;;;;;;;;;5086714;28;20206;-32
2021/12/30 04:05:48;;;;;;;49.60;15.70;;;;;;;;;;5071468;28;20045;-34
2021/12/30 04:08:14;;;;;;;44.58;14.75;;;;;;;;;;5075828;28;20043;-33
2021/12/30 04:10:40;;;;;;;49.55;14.75;;;;;;;;;;5092092;28;20042;-36
2021/12/30 04:13:06;;;;;;;52.88;15.43;;;;;;;;;;5086771;28;20071;-33
2021/12/30 04:15:32;;;;;;;49.60;13.68;;;;;;;;;;5069850;28;20485;-35
2021/12/30 04:17:58;;;;;;;47.13;14.82;;;;;;;;;;5087889;28;20373;-34
2021/12/30 04:20:24;;;;;;;46.95;14.00;;;;;;;;;;5088344;28;20199;-32
2021/12/30 04:22:50;;;;;;;50.08;15.95;;;;;;;;;;5089575;28;20040;-32
2021/12/30 04:25:16;;;;;;;46.80;14.80;;;;;;;;;;5099741;23;20035;-34
2021/12/30 04:27:42;;;;;;;49.83;16.77;;;;;;;;;;5111357;28;20040;-31
2021/12/30 04:30:09;;;;;;;42.45;14.55;;;;;;;;;;5110354;28;20041;-32
2021/12/30 04:32:35;;;;;;;52.55;15.25;;;;;;;;;;5110532;28;20558;-34
2021/12/30 04:35:01;;;;;;;48.67;15.55;;;;;;;;;;5110435;28;20067;-34
2021/12/30 04:37:27;;;;;;;50.00;16.70;;;;;;;;;;5110402;28;20085;-32
2021/12/30 04:39:53;;;;;;;40.13;14.45;;;;;;;;;;5109806;28;20046;-35
2021/12/30 04:42:19;;;;;;;61.70;16.40;;;;;;;;;;5110545;28;20083;-36
2021/12/30 04:44:48;;;;;;;52.95;16.15;;;;;;;;;;5091549;28;20035;-31
2021/12/30 04:47:14;;;;;;;54.13;17.48;;;;;;;;;;5111108;28;20400;-30
2021/12/30 04:49:40;;;;;;;53.17;18.58;;;;;;;;;;5110378;28;20071;-32
2021/12/30 04:52:06;;;;;;;58.63;19.33;;;;;;;;;;5110632;28;20043;-31
2021/12/30 04:54:32;;;;;;;61.50;19.58;;;;;;;;;;5108411;28;20498;-30
2021/12/30 04:56:58;;;;;;;63.95;20.10;;;;;;;;;;5109387;28;20441;-30
2021/12/30 04:59:24;;;;;;;60.97;19.80;;;;;;;;;;5103614;28;20035;-30
2021/12/30 05:01:50;;;;;;;67.55;22.50;;;;;;;;;;5109587;28;20038;-32
2021/12/30 05:04:17;;;;;;;61.22;19.98;;;;;;;;;;5108986;28;20119;-30
2021/12/30 05:06:43;;;;;;;54.88;19.58;;;;;;;;;;5109879;28;20132;-29
2021/12/30 05:09:09;;;;;;;56.30;21.23;;;;;;;;;;5113769;28;20032;-31
2021/12/30 05:11:41;;;;;;;56.65;20.02;;;;;;;;;;5113251;28;20046;-31
2021/12/30 05:14:11;;;;;;;57.28;21.13;;;;;;;;;;5112946;28;20032;-30
2021/12/30 05:16:37;;;;;;;55.60;20.33;;;;;;;;;;5094302;28;20075;-30
2021/12/30 05:19:04;;;;;;;55.13;18.90;;;;;;;;;;5113038;28;20573;-30
2021/12/30 05:21:30;;;;;;;56.67;19.63;;;;;;;;;;5112643;28;20088;-30
2021/12/30 05:23:56;;;;;;;51.10;20.10;;;;;;;;;;5112923;28;20046;-30
2021/12/30 05:26:27;;;;;;;54.50;20.58;;;;;;;;;;5112729;28;20047;-30
2021/12/30 05:28:53;;;;;;;45.95;19.88;;;;;;;;;;5113939;28;20066;-31
2021/12/30 05:31:19;;;;;;;41.50;17.50;;;;;;;;;;5112810;28;20046;-34
2021/12/30 05:33:45;;;;;;;49.08;19.15;;;;;;;;;;5113688;28;20460;-31
2021/12/30 05:36:11;;;;;;;48.28;19.05;;;;;;;;;;5113031;28;20116;-31
2021/12/30 05:38:37;;;;;;;43.58;18.48;;;;;;;;;;5113427;28;20032;-31
2021/12/30 05:41:03;;;;;;;45.55;17.55;;;;;;;;;;5112859;28;20035;-29
2021/12/30 05:43:29;;;;;;;41.20;17.02;;;;;;;;;;5093772;28;20048;-30
2021/12/30 05:45:55;;;;;;;43.22;17.02;;;;;;;;;;5112651;28;20032;-30
2021/12/30 05:48:21;;;;;;;46.33;17.75;;;;;;;;;;5112659;28;20047;-30
2021/12/30 05:50:47;;;;;;;52.35;18.80;;;;;;;;;;5111652;28;20032;-30
2021/12/30 05:53:13;;;;;;;56.88;18.75;;;;;;;;;;5111088;28;20079;-30
2021/12/30 05:55:39;;;;;;;47.33;17.65;;;;;;;;;;5111941;28;20075;-29
2021/12/30 05:58:05;;;;;;;47.20;17.88;;;;;;;;;;5112637;28;20407;-32
2021/12/30 06:00:32;;;;;;;47.47;17.33;;;;;;;;;;5094689;28;20039;-30
2021/12/30 06:02:58;;;;;;;47.22;16.98;;;;;;;;;;5097578;28;20043;-31
2021/12/30 06:05:24;;;;;;;52.70;19.40;;;;;;;;;;5099435;28;20044;-30
2021/12/30 06:07:50;;;;;;;59.03;19.92;;;;;;;;;;5110827;28;20043;-31
2021/12/30 06:10:17;;;;;;;66.68;20.88;;;;;;;;;;5112775;28;20047;-30
2021/12/30 06:12:43;;;;;;;57.92;20.25;;;;;;;;;;5111489;28;20152;-32
2021/12/30 06:15:10;;;;;;;62.28;19.55;;;;;;;;;;5111993;28;20040;-32
2021/12/30 06:17:37;;;;;;;64.35;20.20;;;;;;;;;;5111853;28;20035;-30
2021/12/30 06:20:07;;;;;;;62.25;21.52;;;;;;;;;;5110759;28;20043;-31
2021/12/30 06:22:33;;;;;;;68.07;21.77;;;;;;;;;;5112223;28;20446;-31
2021/12/30 06:24:59;;;;;;;69.07;22.50;;;;;;;;;;5111294;28;20107;-30
2021/12/30 06:27:25;;;;;;;71.88;24.15;;;;;;;;;;5112043;28;20040;-30
2021/12/30 06:29:51;;;;;;;72.95;22.73;;;;;;;;;;5111989;28;20048;-30
2021/12/30 06:32:17;;;;;;;70.97;21.98;;;;;;;;;;5111969;28;20038;-30
2021/12/30 06:34:46;;;;;;;73.65;23.25;;;;;;;;;;5111834;28;20035;-30
2021/12/30 06:37:18;;;;;;;77.18;24.45;;;;;;;;;;5111390;28;20043;-30
2021/12/30 06:39:44;;;;;;;73.20;23.63;;;;;;;;;;5112286;28;20032;-30
2021/12/30 06:42:10;;;;;;;71.72;23.30;;;;;;;;;;5111836;28;20387;-29
2021/12/30 06:44:36;;;;;;;77.47;23.38;;;;;;;;;;5111962;28;20035;-30
2021/12/30 06:47:05;;;;;;;72.65;23.48;;;;;;;;;;5093283;28;20089;-31
2021/12/30 06:49:37;;;;;;;63.28;22.52;;;;;;;;;;5111372;28;20051;-30
2021/12/30 06:52:07;;;;;;;66.45;22.00;;;;;;;;;;5111378;28;20407;-30
2021/12/30 06:54:33;;;;;;;69.28;22.55;;;;;;;;;;5111230;28;20042;-30
2021/12/30 06:57:00;;;;;;;68.20;21.40;;;;;;;;;;5110983;28;20043;-30
2021/12/30 06:59:30;;;;;;;63.85;21.77;;;;;;;;;;5111709;28;20043;-30
2021/12/30 07:01:57;;;;;;;59.25;21.17;;;;;;;;;;5110370;28;20067;-31
2021/12/30 07:04:27;;;;;;;60.00;20.95;;;;;;;;;;5092883;28;20105;-30
2021/12/30 07:06:53;;;;;;;62.85;20.92;;;;;;;;;;5109343;28;20067;-30
2021/12/30 07:09:22;;;;;;;61.60;20.65;;;;;;;;;;5092622;28;20043;-30
2021/12/30 07:11:49;;;;;;;49.97;18.40;;;;;;;;;;5095922;28;20548;-30
2021/12/30 07:14:19;;;;;;;56.85;19.63;;;;;;;;;;5090341;28;20035;-30
2021/12/30 07:16:45;;;;;;;56.35;19.73;;;;;;;;;;5095317;28;20040;-33
2021/12/30 07:19:12;;;;;;;59.67;19.25;;;;;;;;;;5101967;28;20704;-30
2021/12/30 07:21:38;;;;;;;60.45;19.27;;;;;;;;;;5110682;28;20039;-31
2021/12/30 07:24:04;;;;;;;47.38;17.23;;;;;;;;;;5110295;28;20078;-32
2021/12/30 07:26:30;;;;;;;45.50;17.33;;;;;;;;;;5092681;28;20496;-30
2021/12/30 07:28:56;;;;;;;44.33;15.43;;;;;;;;;;5109235;28;20046;-29
2021/12/30 07:31:22;;;;;;;37.10;15.07;;;;;;;;;;5102974;28;20035;-29
2021/12/30 07:33:48;;;;;;;33.83;13.80;;;;;;;;;;5099236;28;20036;-29
2021/12/30 07:36:14;;;;;;;26.98;11.55;;;;;;;;;;5100161;28;20489;-29
2021/12/30 07:38:40;;;;;;;27.83;12.20;;;;;;;;;;5095988;28;20074;-30
2021/12/30 07:41:06;;;;;;;22.60;10.75;;;;;;;;;;5084642;28;20146;-29
2021/12/30 07:43:33;;;;;;;24.98;10.55;;;;;;;;;;5090175;28;20074;-30
2021/12/30 07:46:00;;;;;;;22.80;10.05;;;;;;;;;;5095342;28;20068;-29
2021/12/30 07:48:27;;;;;;;19.65;9.55;;;;;;;;;;5092994;28;20185;-30
2021/12/30 07:50:53;;;;;;;18.30;8.75;;;;;;;;;;5093761;28;20059;-31
2021/12/30 07:53:20;;;;;;;17.77;8.20;;;;;;;;;;5084258;28;20163;-31
2021/12/30 07:55:46;;;;;;;18.73;8.23;;;;;;;;;;5079244;28;20436;-30
2021/12/30 07:58:12;;;;;;;18.95;8.60;;;;;;;;;;5097365;28;20114;-31
2021/12/30 08:00:38;;;;;;;15.90;8.52;;;;;;;;;;5104765;28;20409;-30
2021/12/30 08:03:04;;;;;;;15.18;7.80;;;;;;;;;;5104040;28;20561;-32
2021/12/30 08:05:30;;;;;;;16.92;7.65;;;;;;;;;;5096534;28;20122;-32
2021/12/30 08:08:05;;;;;;;16.85;8.93;;;;;;;;;;5100024;28;20032;-30
2021/12/30 08:10:32;;;;;;;19.15;10.48;;;;;;;;;;5095666;28;20108;-33
2021/12/30 08:12:58;;;;;;;18.00;8.13;;;;;;;;;;5098450;28;20036;-32
2021/12/30 08:15:30;;;;;;;19.20;9.85;;;;;;;;;;5094502;28;20075;-33
2021/12/30 08:17:56;;;;;;;17.55;9.38;;;;;;;;;;5098505;28;20036;-32
2021/12/30 08:20:23;;;;;;;10.73;6.38;;;;;;;;;;5098805;28;20038;-31
2021/12/30 08:22:50;;;;;;;29.58;14.82;;;;;;;;;;5078118;28;20384;-31
2021/12/30 08:25:29;;;;;;;23.83;14.40;;;;;;;;;;5093434;28;20334;-32
2021/12/30 08:27:56;;;;;;;24.10;14.60;;;;;;;;;;5096819;28;20024;-32
2021/12/30 08:30:32;;;;;;;16.85;10.88;;;;;;;;;;5092820;28;20040;-32
2021/12/30 08:32:58;;;;;;;11.68;8.27;;;;;;;;;;5094989;28;20044;-31
2021/12/30 08:35:24;;;;;;;11.07;8.30;;;;;;;;;;5096991;28;20092;-32
2021/12/30 08:37:52;;;;;;;14.63;9.48;;;;;;;;;;5092754;28;20080;-32
2021/12/30 08:40:18;;;;;;;19.45;11.15;;;;;;;;;;5080773;28;20069;-32
2021/12/30 08:42:45;;;;;;;21.95;14.77;;;;;;;;;;5095678;28;20123;-32
2021/12/30 08:45:11;;;;;;;18.48;12.00;;;;;;;;;;5092784;28;20063;-32
2021/12/30 08:47:38;;;;;;;21.85;13.75;;;;;;;;;;5093140;28;20039;-32
2021/12/30 08:50:05;;;;;;;21.45;12.02;;;;;;;;;;5113529;28;20123;-33
2021/12/30 08:52:31;;;;;;;37.47;19.90;;;;;;;;;;5110513;28;20122;-33
2021/12/30 08:54:59;;;;;;;58.55;29.95;;;;;;;;;;5099280;28;20132;-32
2021/12/30 08:57:26;;;;;;;51.85;28.70;;;;;;;;;;5095497;28;20557;-33
2021/12/30 08:59:52;;;;;;;33.92;18.10;;;;;;;;;;5081780;28;20131;-33
2021/12/30 09:02:18;;;;;;;40.10;24.20;;;;;;;;;;5090432;28;20138;-31
2021/12/30 09:04:46;;;;;;;46.60;27.63;;;;;;;;;;5095564;28;20550;-31
2021/12/30 09:07:12;;;;;;;25.90;15.80;;;;;;;;;;5099164;28;20054;-33
2021/12/30 09:09:39;;;;;;;26.55;14.90;;;;;;;;;;5097165;28;20032;-34
2021/12/30 09:12:05;;;;;;;22.85;14.05;;;;;;;;;;5094851;28;20082;-32
2021/12/30 09:14:31;;;;;;;23.25;14.20;;;;;;;;;;5094479;28;20044;-33
2021/12/30 09:16:57;;;;;;;24.02;14.98;;;;;;;;;;5094050;28;20087;-33
2021/12/30 09:19:23;;;;;;;25.45;16.08;;;;;;;;;;5096125;28;20040;-34
2021/12/30 09:21:49;;;;;;;20.17;14.02;;;;;;;;;;5095891;28;20824;-32
2021/12/30 09:24:15;;;;;;;22.42;13.10;;;;;;;;;;5100861;28;20453;-33
2021/12/30 09:26:41;;;;;;;23.45;13.20;;;;;;;;;;5098920;28;20039;-34
2021/12/30 09:29:11;;;;;;;19.15;12.82;;;;;;;;;;5102317;28;20087;-33
2021/12/30 09:31:38;;;;;;;20.70;12.63;;;;;;;;;;5099057;28;20093;-33
2021/12/30 09:34:04;;;;;;;22.77;13.90;;;;;;;;;;5098467;28;20035;-33
2021/12/30 09:36:31;;;;;;;20.63;13.23;;;;;;;;;;5112075;28;20050;-32
2021/12/30 09:38:57;;;;;;;22.08;13.57;;;;;;;;;;5094096;28;20494;-32
2021/12/30 09:41:29;;;;;;;25.40;13.68;;;;;;;;;;5112293;28;20128;-34
2021/12/30 09:43:55;;;;;;;23.95;14.32;;;;;;;;;;5111945;28;20040;-33
2021/12/30 09:46:21;;;;;;;24.80;14.50;;;;;;;;;;5112658;28;20044;-33
2021/12/30 09:48:48;;;;;;;22.48;13.82;;;;;;;;;;5107492;28;20126;-33
2021/12/30 09:51:14;;;;;;;21.48;13.40;;;;;;;;;;5093521;28;20037;-32
2021/12/30 09:53:40;;;;;;;19.92;13.05;;;;;;;;;;5093956;28;20412;-31
2021/12/30 09:56:06;;;;;;;22.90;13.27;;;;;;;;;;5110305;28;20040;-30
2021/12/30 09:58:32;;;;;;;22.05;14.10;;;;;;;;;;5077442;28;20400;-30
2021/12/30 10:01:00;;;;;;;20.45;12.63;;;;;;;;;;5112923;28;20038;-30
2021/12/30 10:03:27;;;;;;;21.90;12.57;;;;;;;;;;5112890;28;20043;-31
2021/12/30 10:05:54;;;;;;;18.10;12.60;;;;;;;;;;5112694;28;20044;-30
2021/12/30 10:08:21;;;;;;;19.45;12.18;;;;;;;;;;5105775;28;20338;-31
2021/12/30 10:10:57;;;;;;;20.02;11.80;;;;;;;;;;5096265;28;20046;-31
2021/12/30 10:13:29;;;;;;;19.92;12.65;;;;;;;;;;5080738;28;20477;-31
2021/12/30 10:15:57;;;;;;;18.60;10.57;;;;;;;;;;5091772;28;20176;-30
2021/12/30 10:18:24;;;;;;;18.73;11.00;;;;;;;;;;5091867;28;20054;-30
2021/12/30 10:20:50;;;;;;;23.40;11.68;;;;;;;;;;5092013;28;20069;-30
2021/12/30 10:23:22;;;;;;;22.85;12.25;;;;;;;;;;5092810;28;20131;-30
2021/12/30 10:25:49;;;;;;;21.45;10.75;;;;;;;;;;5091808;28;20134;-29
2021/12/30 10:28:36;;;;;;;19.30;10.95;;;;;;;;;;5105325;28;20536;-32
2021/12/30 10:31:02;;;;;;;23.90;11.73;;;;;;;;;;5098824;28;20446;-31
2021/12/30 10:33:30;;;;;;;21.85;11.18;;;;;;;;;;5101731;28;20227;-30
2021/12/30 10:35:56;;;;;;;22.80;11.00;;;;;;;;;;5113165;28;20039;-32
2021/12/30 10:38:23;;;;;;;21.35;9.93;;;;;;;;;;5111675;28;20076;-32
2021/12/30 10:46:19;;;;;;;16.20;8.88;;;;;;;;;;5098459;28;20085;-27
2021/12/30 10:48:47;;;;;;;18.80;8.43;;;;;;;;;;5090233;28;20108;-27
2021/12/30 10:51:18;;;;;;;15.55;8.38;;;;;;;;;;5097728;28;20144;-27
2021/12/30 10:53:44;;;;;;;17.08;8.70;;;;;;;;;;5090658;28;20059;-27
2021/12/30 10:56:23;;;;;;;20.58;8.25;;;;;;;;;;5102651;28;20074;-27
2021/12/30 10:58:50;;;;;;;18.35;10.05;;;;;;;;;;5100435;28;20055;-28
2021/12/30 11:01:19;;;;;;;21.90;11.02;;;;;;;;;;5091973;28;20044;-28
2021/12/30 11:03:56;;;;;;;20.05;9.35;;;;;;;;;;5090989;28;20039;-27
2021/12/30 11:06:23;;;;;;;19.95;9.48;;;;;;;;;;5103856;28;20071;-28
2021/12/30 11:08:50;;;;;;;21.42;9.30;;;;;;;;;;5086002;28;20044;-27
2021/12/30 11:11:26;;;;;;;17.88;9.18;;;;;;;;;;5092492;28;20044;-27
2021/12/30 11:14:06;;;;;;;26.92;8.88;;;;;;;;;;5084242;28;20031;-26
2021/12/30 11:16:32;;;;;;;21.05;9.27;;;;;;;;;;5067843;28;20404;-27
2021/12/30 11:18:59;;;;;;;26.45;9.95;;;;;;;;;;5095583;28;20036;-27
2021/12/30 11:21:57;;;;;;;22.58;9.27;;;;;;;;;;5088265;28;20036;-28
2021/12/30 11:24:24;;;;;;;20.77;8.68;;;;;;;;;;5074958;28;20480;-27
2021/12/30 11:26:53;;;;;;;25.67;8.57;;;;;;;;;;5105329;28;20032;-30
2021/12/30 11:29:20;;;;;;;27.17;9.45;;;;;;;;;;5099853;28;20055;-28
2021/12/30 11:31:47;;;;;;;26.33;8.98;;;;;;;;;;5072207;28;20032;-28
2021/12/30 11:34:13;;;;;;;28.98;9.07;;;;;;;;;;5090720;28;20404;-27
2021/12/30 11:36:39;;;;;;;22.50;8.43;;;;;;;;;;5091490;28;20032;-27
2021/12/30 11:39:13;;;;;;;27.42;9.13;;;;;;;;;;5091973;28;20032;-26
2021/12/30 11:41:44;;;;;;;25.90;9.27;;;;;;;;;;5091050;28;20043;-24
2021/12/30 11:44:10;;;;;;;28.08;9.15;;;;;;;;;;5091190;28;20508;-24
2021/12/30 11:46:39;;;;;;;26.38;8.73;;;;;;;;;;5091081;28;20050;-26
2021/12/30 11:49:06;;;;;;;27.08;8.48;;;;;;;;;;5090842;28;20105;-28
2021/12/30 11:51:55;;;;;;;30.42;9.02;;;;;;;;;;5095085;28;20377;-32
2021/12/30 11:54:35;;;;;;;26.77;9.02;;;;;;;;;;5099239;28;20051;-28
2021/12/30 11:57:20;;;;;;;28.25;9.82;;;;;;;;;;5097869;28;20118;-28
2021/12/30 11:59:46;;;;;;;28.10;9.45;;;;;;;;;;5094745;28;20044;-28
2021/12/30 12:02:47;;;;;;;27.40;9.77;;;;;;;;;;5086698;28;20050;-28
2021/12/30 12:05:32;;;;;;;31.15;11.32;;;;;;;;;;5073029;28;20120;-28
2021/12/30 12:08:02;;;;;;;20.33;9.15;;;;;;;;;;5079478;28;20224;-29
2021/12/30 12:10:28;;;;;;;31.08;10.38;;;;;;;;;;5091397;28;20043;-28
2021/12/30 12:12:54;;;;;;;25.52;10.07;;;;;;;;;;5073366;28;20127;-27
2021/12/30 12:15:20;;;;;;;27.98;10.23;;;;;;;;;;5089700;28;20115;-28
2021/12/30 12:17:46;;;;;;;31.98;10.98;;;;;;;;;;5101623;28;20036;-28
2021/12/30 12:20:21;;;;;;;34.05;13.23;;;;;;;;;;5108821;28;20036;-28
2021/12/30 12:22:47;;;;;;;36.90;13.40;;;;;;;;;;5092425;28;20040;-29
2021/12/30 12:25:18;;;;;;;35.05;11.02;;;;;;;;;;5084246;28;20050;-28
2021/12/30 12:27:46;;;;;;;31.15;12.05;;;;;;;;;;5097809;28;20039;-29
2021/12/30 12:30:27;;;;;;;28.88;11.65;;;;;;;;;;5089354;28;20070;-28
2021/12/30 12:32:53;;;;;;;37.75;13.80;;;;;;;;;;5085395;28;20044;-28
2021/12/30 12:35:53;;;;;;;30.77;12.70;;;;;;;;;;5101443;28;20034;-29
2021/12/30 12:45:11;;;;;;;22.75;9.63;;;;;;;;;;5083911;28;20040;-28
2021/12/30 12:47:43;;;;;;;28.45;10.10;;;;;;;;;;5066360;28;20143;-31
2021/12/30 12:50:09;;;;;;;27.13;10.18;;;;;;;;;;5091363;28;20119;-30
2021/12/30 13:02:47;;;;;;;31.25;13.48;;;;;;;;;;5078325;28;20400;-30
2021/12/30 13:05:15;;;;;;;33.33;14.10;;;;;;;;;;5083966;28;20029;-31
2021/12/30 13:08:09;;;;;;;33.15;13.40;;;;;;;;;;5071694;28;20040;-31
2021/12/30 13:14:18;;;;;;;30.92;13.18;;;;;;;;;;5086560;28;20497;-30
2021/12/30 13:16:44;;;;;;;24.98;12.35;;;;;;;;;;5080082;28;20401;-30
2021/12/30 13:19:12;;;;;;;32.33;13.20;;;;;;;;;;5064168;28;20048;-31
2021/12/30 13:21:41;;;;;;;23.08;11.13;;;;;;;;;;5089926;28;20262;-30
2021/12/30 13:24:08;;;;;;;27.02;11.95;;;;;;;;;;5088188;28;20317;-30
2021/12/30 13:26:40;;;;;;;27.13;11.57;;;;;;;;;;5091923;28;20063;-30
2021/12/30 13:29:18;;;;;;;30.67;12.63;;;;;;;;;;5086616;28;20490;-30
2021/12/30 13:31:53;;;;;;;;;;;;;;;;;;5094140;28;20653;-30
2021/12/30 13:34:19;;;;;;;32.25;12.55;;;;;;;;;;5058110;28;19920;-30
2021/12/30 13:37:09;;;;;;;32.20;13.15;;;;;;;;;;5089886;28;20041;-30
2021/12/30 13:39:43;;;;;;;32.83;12.38;;;;;;;;;;5072858;28;20051;-31
2021/12/30 13:42:17;;;;;;;23.88;11.05;;;;;;;;;;5091347;28;20044;-30
2021/12/30 13:44:51;;;;;;;23.65;10.02;;;;;;;;;;5069155;28;20389;-31
2021/12/30 13:47:26;;;;;;;;;;;;;;;;;;5098020;28;20028;-30
2021/12/30 13:50:17;;;;;;;28.92;12.40;;;;;;;;;;5107687;28;19916;-30
2021/12/30 13:52:47;;;;;;;32.83;13.05;;;;;;;;;;5078845;28;20051;-30
2021/12/30 13:55:23;;;;;;;29.85;12.80;;;;;;;;;;5087105;28;20035;-31
2021/12/30 13:57:58;;;;;;;34.97;12.52;;;;;;;;;;5083876;28;20036;-31
2021/12/30 14:00:24;;;;;;;25.88;12.50;;;;;;;;;;5083080;28;20490;-29
2021/12/30 14:13:04;;;;;;;32.15;11.43;;;;;;;;;;5083352;28;20047;-32
2021/12/30 14:15:34;;;;;;;30.60;12.77;;;;;;;;;;5092549;28;20138;-33
2021/12/30 14:18:09;;;;;;;25.23;11.40;;;;;;;;;;5088382;28;20059;-31
2021/12/30 14:23:52;;;;;;;30.25;12.10;;;;;;;;;;5087883;28;20044;-31
2021/12/30 14:26:26;;;;;;;26.15;12.02;;;;;;;;;;5088432;28;20045;-30
2021/12/30 14:28:54;;;;;;;26.38;11.13;;;;;;;;;;5073551;28;20453;-32
2021/12/30 14:34:44;;;;;;;28.95;12.18;;;;;;;;;;5112351;28;20050;-31
2021/12/30 14:37:16;;;;;;;28.33;12.30;;;;;;;;;;5101885;28;20140;-30
2021/12/30 14:39:43;;;;;;;24.23;12.15;;;;;;;;;;5079857;28;20036;-30
2021/12/30 14:42:11;;;;;;;24.63;12.05;;;;;;;;;;5091857;28;20468;-31
2021/12/30 15:01:24;;;;;;;33.60;17.17;;;;;;;;;;5083649;28;20660;-31
2021/12/30 15:04:04;;;;;;;21.10;12.48;;;;;;;;;;5080449;28;20454;-31
2021/12/30 15:13:16;;;;;;;33.95;17.55;;;;;;;;;;5079483;28;20047;-29
2021/12/30 15:15:42;;;;;;;23.27;12.02;;;;;;;;;;5086748;28;20544;-29
2021/12/30 15:18:09;;;;;;;17.95;9.55;;;;;;;;;;5084857;28;20117;-29
2021/12/30 15:20:36;;;;;;;19.60;9.52;;;;;;;;;;5113317;28;20067;-28
2021/12/30 15:33:29;;;;;;;14.77;7.85;;;;;;;;;;5073362;28;20078;-27
2021/12/30 15:36:02;;;;;;;17.48;8.27;;;;;;;;;;5072577;28;20041;-28
2021/12/30 15:38:31;;;;;;;17.23;11.45;;;;;;;;;;5073647;28;20033;-28
2021/12/30 15:40:57;;;;;;;19.55;9.43;;;;;;;;;;5072710;28;20120;-27
2021/12/30 15:43:45;;;;;;;20.55;10.57;;;;;;;;;;5072638;28;20047;-27
2021/12/30 15:53:21;;;;;;;18.58;10.93;;;;;;;;;;5072918;28;20055;-30
2021/12/30 15:55:47;;;;;;;31.33;12.15;;;;;;;;;;5091167;28;20051;-29
2021/12/30 16:01:36;;;;;;;22.77;11.48;;;;;;;;;;5094355;28;20034;-27
2021/12/30 16:04:02;;;;;;;29.48;12.57;;;;;;;;;;5092770;28;20494;-29